sensor_id;sensor_type;location;lat;lon;timestamp;P1;durP1;ratioP1;P2;durP2;ratioP2
62915;SDS011;49010;51.230;-2.306;2022-07-05T00:02:56;6.28;;;1.52;;
62915;SDS011;49010;51.230;-2.306;2022-07-05T00:06:38;2.85;;;1.55;;
62915;SDS011;49010;51.230;-2.306;2022-07-05T00:10:43;4.80;;;1.00;;
62915;SDS011;49010;51.230;-2.306;2022-07-05T00:14:28;2.45;;;1.00;;
62915;SDS011;49010;51.230;-2.306;2022-07-05T00:18:10;2.80;;;1.13;;
62915;SDS011;49010;51.230;-2.306;2022-07-05T00:21:51;2.00;;;0.73;;
62915;SDS011;49010;51.230;-2.306;2022-07-05T00:25:33;2.10;;;0.88;;
62915;SDS011;49010;51.230;-2.306;2022-07-05T00:29:15;3.25;;;0.70;;
62915;SDS011;49010;51.230;-2.306;2022-07-05T00:32:57;2.78;;;1.10;;
62915;SDS011;49010;51.230;-2.306;2022-07-05T00:36:39;3.03;;;1.38;;
62915;SDS011;49010;51.230;-2.306;2022-07-05T00:40:22;2.97;;;1.25;;
62915;SDS011;49010;51.230;-2.306;2022-07-05T00:44:06;5.82;;;0.98;;
62915;SDS011;49010;51.230;-2.306;2022-07-05T00:47:50;1.85;;;0.95;;
62915;SDS011;49010;51.230;-2.306;2022-07-05T00:51:32;4.65;;;1.02;;
62915;SDS011;49010;51.230;-2.306;2022-07-05T00:55:37;3.88;;;1.25;;
62915;SDS011;49010;51.230;-2.306;2022-07-05T00:59:19;2.80;;;0.98;;
62915;SDS011;49010;51.230;-2.306;2022-07-05T01:03:01;4.72;;;1.00;;
62915;SDS011;49010;51.230;-2.306;2022-07-05T01:06:43;2.00;;;0.90;;
62915;SDS011;49010;51.230;-2.306;2022-07-05T01:10:28;2.08;;;1.05;;
62915;SDS011;49010;51.230;-2.306;2022-07-05T01:14:16;10.77;;;1.40;;
62915;SDS011;49010;51.230;-2.306;2022-07-05T01:18:00;2.30;;;0.75;;
62915;SDS011;49010;51.230;-2.306;2022-07-05T01:21:42;1.90;;;0.82;;
62915;SDS011;49010;51.230;-2.306;2022-07-05T01:25:26;4.22;;;1.13;;
62915;SDS011;49010;51.230;-2.306;2022-07-05T01:29:09;2.50;;;1.38;;
62915;SDS011;49010;51.230;-2.306;2022-07-05T01:32:51;3.45;;;0.90;;
62915;SDS011;49010;51.230;-2.306;2022-07-05T01:36:34;3.63;;;1.00;;
62915;SDS011;49010;51.230;-2.306;2022-07-05T01:40:17;2.85;;;0.70;;
62915;SDS011;49010;51.230;-2.306;2022-07-05T01:44:00;4.43;;;1.23;;
62915;SDS011;49010;51.230;-2.306;2022-07-05T01:47:42;2.20;;;1.10;;
62915;SDS011;49010;51.230;-2.306;2022-07-05T01:51:27;3.08;;;0.88;;
62915;SDS011;49010;51.230;-2.306;2022-07-05T01:55:14;2.42;;;1.05;;
62915;SDS011;49010;51.230;-2.306;2022-07-05T01:58:56;2.28;;;0.95;;
62915;SDS011;49010;51.230;-2.306;2022-07-05T02:02:42;1.27;;;0.88;;
62915;SDS011;49010;51.230;-2.306;2022-07-05T02:06:25;1.15;;;0.60;;
62915;SDS011;49010;51.230;-2.306;2022-07-05T02:10:07;2.83;;;0.88;;
62915;SDS011;49010;51.230;-2.306;2022-07-05T02:13:49;4.38;;;1.05;;
62915;SDS011;49010;51.230;-2.306;2022-07-05T02:17:31;3.85;;;1.15;;
62915;SDS011;49010;51.230;-2.306;2022-07-05T02:21:13;2.25;;;0.75;;
62915;SDS011;49010;51.230;-2.306;2022-07-05T02:24:55;7.35;;;1.13;;
62915;SDS011;49010;51.230;-2.306;2022-07-05T02:28:37;1.88;;;1.00;;
62915;SDS011;49010;51.230;-2.306;2022-07-05T02:32:19;4.75;;;1.23;;
62915;SDS011;49010;51.230;-2.306;2022-07-05T02:36:08;13.50;;;1.38;;
62915;SDS011;49010;51.230;-2.306;2022-07-05T02:39:51;2.13;;;0.98;;
62915;SDS011;49010;51.230;-2.306;2022-07-05T02:43:33;4.00;;;1.00;;
62915;SDS011;49010;51.230;-2.306;2022-07-05T02:47:15;2.42;;;0.98;;
62915;SDS011;49010;51.230;-2.306;2022-07-05T02:50:58;3.05;;;1.42;;
62915;SDS011;49010;51.230;-2.306;2022-07-05T02:54:40;2.97;;;1.20;;
62915;SDS011;49010;51.230;-2.306;2022-07-05T02:58:22;3.55;;;1.02;;
62915;SDS011;49010;51.230;-2.306;2022-07-05T03:02:04;2.15;;;0.98;;
62915;SDS011;49010;51.230;-2.306;2022-07-05T03:05:46;1.95;;;0.82;;
62915;SDS011;49010;51.230;-2.306;2022-07-05T03:09:28;2.55;;;0.98;;
62915;SDS011;49010;51.230;-2.306;2022-07-05T03:13:10;3.83;;;1.10;;
62915;SDS011;49010;51.230;-2.306;2022-07-05T03:16:52;2.20;;;0.88;;
62915;SDS011;49010;51.230;-2.306;2022-07-05T03:20:33;4.88;;;1.00;;
62915;SDS011;49010;51.230;-2.306;2022-07-05T03:24:15;3.15;;;1.38;;
62915;SDS011;49010;51.230;-2.306;2022-07-05T03:27:57;2.38;;;1.33;;
62915;SDS011;49010;51.230;-2.306;2022-07-05T03:31:39;2.30;;;1.30;;
62915;SDS011;49010;51.230;-2.306;2022-07-05T03:35:21;2.83;;;0.98;;
62915;SDS011;49010;51.230;-2.306;2022-07-05T03:39:03;1.33;;;0.90;;
62915;SDS011;49010;51.230;-2.306;2022-07-05T03:42:45;2.03;;;1.00;;
62915;SDS011;49010;51.230;-2.306;2022-07-05T03:46:27;2.67;;;0.85;;
62915;SDS011;49010;51.230;-2.306;2022-07-05T03:50:09;2.40;;;0.93;;
62915;SDS011;49010;51.230;-2.306;2022-07-05T03:53:50;2.55;;;1.00;;
62915;SDS011;49010;51.230;-2.306;2022-07-05T03:57:32;1.60;;;1.15;;
62915;SDS011;49010;51.230;-2.306;2022-07-05T04:01:14;2.75;;;0.98;;
62915;SDS011;49010;51.230;-2.306;2022-07-05T04:04:56;2.10;;;0.90;;
62915;SDS011;49010;51.230;-2.306;2022-07-05T04:08:38;4.43;;;1.10;;
62915;SDS011;49010;51.230;-2.306;2022-07-05T04:12:20;2.40;;;1.10;;
62915;SDS011;49010;51.230;-2.306;2022-07-05T04:16:02;1.98;;;1.00;;
62915;SDS011;49010;51.230;-2.306;2022-07-05T04:19:44;3.13;;;1.23;;
62915;SDS011;49010;51.230;-2.306;2022-07-05T04:23:27;3.28;;;1.35;;
62915;SDS011;49010;51.230;-2.306;2022-07-05T04:27:09;6.13;;;1.20;;
62915;SDS011;49010;51.230;-2.306;2022-07-05T04:30:51;3.05;;;1.10;;
62915;SDS011;49010;51.230;-2.306;2022-07-05T04:34:32;4.47;;;1.00;;
62915;SDS011;49010;51.230;-2.306;2022-07-05T04:38:14;1.52;;;0.90;;
62915;SDS011;49010;51.230;-2.306;2022-07-05T04:41:56;2.67;;;0.98;;
62915;SDS011;49010;51.230;-2.306;2022-07-05T04:45:40;2.17;;;1.00;;
62915;SDS011;49010;51.230;-2.306;2022-07-05T04:49:21;2.83;;;1.35;;
62915;SDS011;49010;51.230;-2.306;2022-07-05T04:53:03;2.55;;;1.52;;
62915;SDS011;49010;51.230;-2.306;2022-07-05T04:56:45;2.55;;;1.15;;
62915;SDS011;49010;51.230;-2.306;2022-07-05T05:00:27;3.22;;;1.20;;
62915;SDS011;49010;51.230;-2.306;2022-07-05T05:04:09;3.17;;;1.50;;
62915;SDS011;49010;51.230;-2.306;2022-07-05T05:07:51;2.10;;;1.48;;
62915;SDS011;49010;51.230;-2.306;2022-07-05T05:11:36;3.13;;;1.40;;
62915;SDS011;49010;51.230;-2.306;2022-07-05T05:15:18;3.40;;;1.55;;
62915;SDS011;49010;51.230;-2.306;2022-07-05T05:19:00;5.15;;;1.42;;
62915;SDS011;49010;51.230;-2.306;2022-07-05T05:22:42;3.90;;;1.65;;
62915;SDS011;49010;51.230;-2.306;2022-07-05T05:26:24;4.70;;;1.50;;
62915;SDS011;49010;51.230;-2.306;2022-07-05T05:30:06;2.03;;;1.38;;
62915;SDS011;49010;51.230;-2.306;2022-07-05T05:33:48;2.20;;;1.13;;
62915;SDS011;49010;51.230;-2.306;2022-07-05T05:37:30;6.03;;;1.85;;
62915;SDS011;49010;51.230;-2.306;2022-07-05T05:41:12;3.50;;;1.85;;
62915;SDS011;49010;51.230;-2.306;2022-07-05T05:44:54;3.72;;;1.85;;
62915;SDS011;49010;51.230;-2.306;2022-07-05T05:48:35;3.28;;;2.20;;
62915;SDS011;49010;51.230;-2.306;2022-07-05T05:52:17;2.80;;;1.88;;
62915;SDS011;49010;51.230;-2.306;2022-07-05T05:55:59;2.28;;;1.88;;
62915;SDS011;49010;51.230;-2.306;2022-07-05T05:59:41;5.18;;;2.40;;
62915;SDS011;49010;51.230;-2.306;2022-07-05T06:03:26;4.82;;;2.50;;
62915;SDS011;49010;51.230;-2.306;2022-07-05T06:07:08;3.60;;;2.08;;
62915;SDS011;49010;51.230;-2.306;2022-07-05T06:10:50;4.10;;;2.20;;
62915;SDS011;49010;51.230;-2.306;2022-07-05T06:14:41;3.00;;;2.05;;
62915;SDS011;49010;51.230;-2.306;2022-07-05T06:18:22;3.58;;;2.05;;
62915;SDS011;49010;51.230;-2.306;2022-07-05T06:22:04;4.53;;;2.70;;
62915;SDS011;49010;51.230;-2.306;2022-07-05T06:25:46;3.65;;;2.10;;
62915;SDS011;49010;51.230;-2.306;2022-07-05T06:29:28;4.40;;;2.25;;
62915;SDS011;49010;51.230;-2.306;2022-07-05T06:33:10;2.80;;;1.65;;
62915;SDS011;49010;51.230;-2.306;2022-07-05T06:36:52;2.42;;;1.55;;
62915;SDS011;49010;51.230;-2.306;2022-07-05T06:40:35;4.00;;;2.20;;
62915;SDS011;49010;51.230;-2.306;2022-07-05T06:44:18;3.85;;;2.20;;
62915;SDS011;49010;51.230;-2.306;2022-07-05T06:48:16;3.47;;;1.40;;
62915;SDS011;49010;51.230;-2.306;2022-07-05T06:51:58;3.17;;;1.42;;
62915;SDS011;49010;51.230;-2.306;2022-07-05T06:55:40;2.33;;;1.60;;
62915;SDS011;49010;51.230;-2.306;2022-07-05T06:59:35;3.83;;;1.27;;
62915;SDS011;49010;51.230;-2.306;2022-07-05T07:03:38;3.40;;;1.13;;
62915;SDS011;49010;51.230;-2.306;2022-07-05T07:07:39;3.42;;;1.40;;
62915;SDS011;49010;51.230;-2.306;2022-07-05T07:11:40;3.90;;;1.33;;
62915;SDS011;49010;51.230;-2.306;2022-07-05T07:15:21;4.55;;;1.40;;
62915;SDS011;49010;51.230;-2.306;2022-07-05T07:19:03;2.83;;;1.10;;
62915;SDS011;49010;51.230;-2.306;2022-07-05T07:22:58;2.65;;;1.02;;
62915;SDS011;49010;51.230;-2.306;2022-07-05T07:26:40;3.63;;;0.90;;
62915;SDS011;49010;51.230;-2.306;2022-07-05T07:30:40;3.35;;;0.82;;
62915;SDS011;49010;51.230;-2.306;2022-07-05T07:34:22;1.50;;;0.80;;
62915;SDS011;49010;51.230;-2.306;2022-07-05T07:38:05;1.63;;;0.63;;
62915;SDS011;49010;51.230;-2.306;2022-07-05T07:41:47;1.88;;;0.82;;
62915;SDS011;49010;51.230;-2.306;2022-07-05T07:45:29;2.47;;;1.00;;
62915;SDS011;49010;51.230;-2.306;2022-07-05T07:49:12;3.53;;;1.00;;
62915;SDS011;49010;51.230;-2.306;2022-07-05T07:52:54;2.65;;;1.00;;
62915;SDS011;49010;51.230;-2.306;2022-07-05T07:56:36;5.13;;;0.95;;
62915;SDS011;49010;51.230;-2.306;2022-07-05T08:00:18;4.15;;;0.95;;
62915;SDS011;49010;51.230;-2.306;2022-07-05T08:04:00;4.15;;;0.82;;
62915;SDS011;49010;51.230;-2.306;2022-07-05T08:07:42;2.25;;;0.55;;
62915;SDS011;49010;51.230;-2.306;2022-07-05T08:11:23;4.50;;;0.90;;
62915;SDS011;49010;51.230;-2.306;2022-07-05T08:15:06;2.70;;;0.70;;
62915;SDS011;49010;51.230;-2.306;2022-07-05T08:18:49;3.67;;;0.80;;
62915;SDS011;49010;51.230;-2.306;2022-07-05T08:22:49;2.85;;;0.93;;
62915;SDS011;49010;51.230;-2.306;2022-07-05T08:26:31;2.90;;;0.90;;
62915;SDS011;49010;51.230;-2.306;2022-07-05T08:30:14;2.90;;;0.68;;
62915;SDS011;49010;51.230;-2.306;2022-07-05T08:33:58;3.28;;;0.68;;
62915;SDS011;49010;51.230;-2.306;2022-07-05T08:37:41;2.22;;;0.80;;
62915;SDS011;49010;51.230;-2.306;2022-07-05T08:41:23;4.43;;;1.15;;
62915;SDS011;49010;51.230;-2.306;2022-07-05T08:45:05;3.15;;;0.77;;
62915;SDS011;49010;51.230;-2.306;2022-07-05T08:48:50;2.20;;;0.75;;
62915;SDS011;49010;51.230;-2.306;2022-07-05T08:52:33;4.13;;;1.35;;
62915;SDS011;49010;51.230;-2.306;2022-07-05T08:56:15;3.58;;;0.93;;
62915;SDS011;49010;51.230;-2.306;2022-07-05T09:00:10;3.72;;;0.93;;
62915;SDS011;49010;51.230;-2.306;2022-07-05T09:03:52;3.17;;;0.90;;
62915;SDS011;49010;51.230;-2.306;2022-07-05T09:07:36;3.38;;;0.73;;
62915;SDS011;49010;51.230;-2.306;2022-07-05T09:11:21;2.30;;;0.75;;
62915;SDS011;49010;51.230;-2.306;2022-07-05T09:15:06;4.53;;;0.73;;
62915;SDS011;49010;51.230;-2.306;2022-07-05T09:18:49;2.50;;;0.80;;
62915;SDS011;49010;51.230;-2.306;2022-07-05T09:22:52;3.40;;;0.90;;
62915;SDS011;49010;51.230;-2.306;2022-07-05T09:26:37;3.90;;;0.95;;
62915;SDS011;49010;51.230;-2.306;2022-07-05T09:30:27;3.22;;;1.08;;
62915;SDS011;49010;51.230;-2.306;2022-07-05T09:34:10;5.80;;;1.23;;
62915;SDS011;49010;51.230;-2.306;2022-07-05T09:37:52;3.97;;;1.35;;
62915;SDS011;49010;51.230;-2.306;2022-07-05T09:41:34;3.60;;;1.63;;
62915;SDS011;49010;51.230;-2.306;2022-07-05T09:45:22;3.35;;;0.90;;
62915;SDS011;49010;51.230;-2.306;2022-07-05T09:49:05;2.55;;;0.93;;
62915;SDS011;49010;51.230;-2.306;2022-07-05T09:52:47;5.50;;;1.30;;
62915;SDS011;49010;51.230;-2.306;2022-07-05T09:56:29;4.65;;;1.00;;
62915;SDS011;49010;51.230;-2.306;2022-07-05T10:00:26;5.32;;;1.15;;
62915;SDS011;49010;51.230;-2.306;2022-07-05T10:04:11;4.47;;;1.00;;
62915;SDS011;49010;51.230;-2.306;2022-07-05T10:08:00;4.72;;;1.25;;
62915;SDS011;49010;51.230;-2.306;2022-07-05T10:11:43;2.42;;;1.20;;
62915;SDS011;49010;51.230;-2.306;2022-07-05T10:15:27;2.20;;;1.00;;
62915;SDS011;49010;51.230;-2.306;2022-07-05T10:19:17;4.40;;;0.95;;
62915;SDS011;49010;51.230;-2.306;2022-07-05T10:23:01;2.88;;;0.88;;
62915;SDS011;49010;51.230;-2.306;2022-07-05T10:26:47;2.55;;;0.90;;
62915;SDS011;49010;51.230;-2.306;2022-07-05T10:30:29;2.17;;;0.75;;
62915;SDS011;49010;51.230;-2.306;2022-07-05T10:34:12;3.03;;;0.95;;
62915;SDS011;49010;51.230;-2.306;2022-07-05T10:38:15;3.22;;;0.90;;
62915;SDS011;49010;51.230;-2.306;2022-07-05T10:41:58;3.55;;;1.20;;
62915;SDS011;49010;51.230;-2.306;2022-07-05T10:45:46;4.20;;;1.45;;
62915;SDS011;49010;51.230;-2.306;2022-07-05T10:49:30;2.85;;;0.90;;
62915;SDS011;49010;51.230;-2.306;2022-07-05T10:53:12;2.50;;;0.70;;
62915;SDS011;49010;51.230;-2.306;2022-07-05T11:05:05;2.28;;;1.00;;
62915;SDS011;49010;51.230;-2.306;2022-07-05T11:12:38;7.18;;;1.15;;
62915;SDS011;49010;51.230;-2.306;2022-07-05T11:16:29;3.58;;;1.30;;
62915;SDS011;49010;51.230;-2.306;2022-07-05T11:20:14;4.32;;;1.40;;
62915;SDS011;49010;51.230;-2.306;2022-07-05T11:32:04;3.05;;;1.45;;
62915;SDS011;49010;51.230;-2.306;2022-07-05T11:35:47;4.32;;;1.33;;
62915;SDS011;49010;51.230;-2.306;2022-07-05T11:39:29;4.55;;;1.55;;
62915;SDS011;49010;51.230;-2.306;2022-07-05T11:43:10;5.28;;;1.58;;
62915;SDS011;49010;51.230;-2.306;2022-07-05T11:46:52;6.95;;;1.38;;
62915;SDS011;49010;51.230;-2.306;2022-07-05T11:50:35;5.97;;;1.90;;
62915;SDS011;49010;51.230;-2.306;2022-07-05T11:54:21;4.60;;;1.60;;
62915;SDS011;49010;51.230;-2.306;2022-07-05T11:58:04;4.85;;;1.45;;
62915;SDS011;49010;51.230;-2.306;2022-07-05T12:01:51;4.45;;;1.48;;
62915;SDS011;49010;51.230;-2.306;2022-07-05T12:05:34;5.32;;;1.30;;
62915;SDS011;49010;51.230;-2.306;2022-07-05T12:09:26;8.15;;;1.70;;
62915;SDS011;49010;51.230;-2.306;2022-07-05T12:13:30;5.38;;;1.48;;
62915;SDS011;49010;51.230;-2.306;2022-07-05T12:17:12;5.38;;;1.58;;
62915;SDS011;49010;51.230;-2.306;2022-07-05T12:21:11;3.63;;;1.30;;
62915;SDS011;49010;51.230;-2.306;2022-07-05T12:24:55;2.88;;;1.23;;
62915;SDS011;49010;51.230;-2.306;2022-07-05T12:28:40;7.03;;;1.30;;
62915;SDS011;49010;51.230;-2.306;2022-07-05T12:32:23;2.67;;;1.10;;
62915;SDS011;49010;51.230;-2.306;2022-07-05T12:36:05;3.15;;;1.25;;
62915;SDS011;49010;51.230;-2.306;2022-07-05T12:40:06;2.95;;;1.00;;
62915;SDS011;49010;51.230;-2.306;2022-07-05T12:43:53;5.13;;;0.95;;
62915;SDS011;49010;51.230;-2.306;2022-07-05T12:47:36;4.50;;;1.10;;
62915;SDS011;49010;51.230;-2.306;2022-07-05T12:51:39;3.67;;;1.08;;
62915;SDS011;49010;51.230;-2.306;2022-07-05T12:55:22;2.20;;;1.00;;
62915;SDS011;49010;51.230;-2.306;2022-07-05T12:59:23;5.05;;;1.08;;
62915;SDS011;49010;51.230;-2.306;2022-07-05T13:03:05;4.22;;;1.17;;
62915;SDS011;49010;51.230;-2.306;2022-07-05T13:06:49;5.05;;;1.08;;
62915;SDS011;49010;51.230;-2.306;2022-07-05T13:10:45;3.22;;;0.95;;
62915;SDS011;49010;51.230;-2.306;2022-07-05T13:14:27;3.80;;;1.17;;
62915;SDS011;49010;51.230;-2.306;2022-07-05T13:18:09;4.95;;;1.63;;
62915;SDS011;49010;51.230;-2.306;2022-07-05T13:21:51;4.88;;;1.17;;
62915;SDS011;49010;51.230;-2.306;2022-07-05T13:25:33;3.22;;;1.20;;
62915;SDS011;49010;51.230;-2.306;2022-07-05T13:29:15;5.22;;;1.35;;
62915;SDS011;49010;51.230;-2.306;2022-07-05T13:32:58;3.83;;;1.00;;
62915;SDS011;49010;51.230;-2.306;2022-07-05T13:36:40;5.82;;;1.42;;
62915;SDS011;49010;51.230;-2.306;2022-07-05T13:40:22;4.55;;;1.45;;
62915;SDS011;49010;51.230;-2.306;2022-07-05T13:44:04;3.15;;;1.15;;
62915;SDS011;49010;51.230;-2.306;2022-07-05T13:47:45;3.40;;;1.33;;
62915;SDS011;49010;51.230;-2.306;2022-07-05T13:51:27;4.85;;;1.42;;
62915;SDS011;49010;51.230;-2.306;2022-07-05T13:55:10;4.65;;;1.23;;
62915;SDS011;49010;51.230;-2.306;2022-07-05T13:58:52;4.25;;;1.08;;
62915;SDS011;49010;51.230;-2.306;2022-07-05T14:02:35;3.20;;;1.20;;
62915;SDS011;49010;51.230;-2.306;2022-07-05T14:06:17;4.43;;;1.40;;
62915;SDS011;49010;51.230;-2.306;2022-07-05T14:09:59;2.70;;;1.10;;
62915;SDS011;49010;51.230;-2.306;2022-07-05T14:13:41;5.57;;;1.50;;
62915;SDS011;49010;51.230;-2.306;2022-07-05T14:17:23;4.32;;;1.25;;
62915;SDS011;49010;51.230;-2.306;2022-07-05T14:21:06;3.08;;;1.10;;
62915;SDS011;49010;51.230;-2.306;2022-07-05T14:28:32;6.22;;;1.25;;
62915;SDS011;49010;51.230;-2.306;2022-07-05T14:32:14;4.50;;;1.20;;
62915;SDS011;49010;51.230;-2.306;2022-07-05T14:35:56;3.70;;;1.15;;
62915;SDS011;49010;51.230;-2.306;2022-07-05T14:39:38;2.63;;;1.25;;
62915;SDS011;49010;51.230;-2.306;2022-07-05T14:43:19;4.72;;;1.40;;
62915;SDS011;49010;51.230;-2.306;2022-07-05T14:47:01;3.75;;;1.30;;
62915;SDS011;49010;51.230;-2.306;2022-07-05T14:50:43;2.70;;;1.20;;
62915;SDS011;49010;51.230;-2.306;2022-07-05T14:54:28;2.20;;;1.15;;
62915;SDS011;49010;51.230;-2.306;2022-07-05T14:58:10;3.75;;;1.30;;
62915;SDS011;49010;51.230;-2.306;2022-07-05T15:01:52;2.75;;;1.10;;
62915;SDS011;49010;51.230;-2.306;2022-07-05T15:05:34;4.32;;;1.67;;
62915;SDS011;49010;51.230;-2.306;2022-07-05T15:09:16;2.95;;;1.20;;
62915;SDS011;49010;51.230;-2.306;2022-07-05T15:12:59;3.03;;;1.17;;
62915;SDS011;49010;51.230;-2.306;2022-07-05T15:16:41;3.00;;;1.50;;
62915;SDS011;49010;51.230;-2.306;2022-07-05T15:20:24;2.80;;;1.33;;
62915;SDS011;49010;51.230;-2.306;2022-07-05T15:24:06;4.05;;;1.58;;
62915;SDS011;49010;51.230;-2.306;2022-07-05T15:27:58;3.92;;;1.30;;
62915;SDS011;49010;51.230;-2.306;2022-07-05T15:31:40;4.47;;;1.27;;
62915;SDS011;49010;51.230;-2.306;2022-07-05T15:35:22;3.15;;;1.20;;
62915;SDS011;49010;51.230;-2.306;2022-07-05T15:39:05;5.82;;;1.20;;
62915;SDS011;49010;51.230;-2.306;2022-07-05T15:42:48;3.67;;;1.35;;
62915;SDS011;49010;51.230;-2.306;2022-07-05T15:46:29;4.07;;;1.05;;
62915;SDS011;49010;51.230;-2.306;2022-07-05T15:50:31;1.95;;;1.05;;
62915;SDS011;49010;51.230;-2.306;2022-07-05T15:54:13;1.90;;;1.08;;
62915;SDS011;49010;51.230;-2.306;2022-07-05T15:57:55;3.42;;;1.05;;
62915;SDS011;49010;51.230;-2.306;2022-07-05T16:01:37;3.72;;;1.15;;
62915;SDS011;49010;51.230;-2.306;2022-07-05T16:05:20;4.88;;;1.00;;
62915;SDS011;49010;51.230;-2.306;2022-07-05T16:09:03;4.25;;;1.00;;
62915;SDS011;49010;51.230;-2.306;2022-07-05T16:12:47;2.42;;;1.00;;
62915;SDS011;49010;51.230;-2.306;2022-07-05T16:16:29;2.30;;;0.98;;
62915;SDS011;49010;51.230;-2.306;2022-07-05T16:20:11;2.15;;;0.88;;
62915;SDS011;49010;51.230;-2.306;2022-07-05T16:23:52;2.20;;;0.90;;
62915;SDS011;49010;51.230;-2.306;2022-07-05T16:27:34;4.28;;;1.13;;
62915;SDS011;49010;51.230;-2.306;2022-07-05T16:31:17;3.67;;;1.08;;
62915;SDS011;49010;51.230;-2.306;2022-07-05T16:34:59;4.03;;;1.20;;
62915;SDS011;49010;51.230;-2.306;2022-07-05T16:38:44;3.53;;;1.58;;
62915;SDS011;49010;51.230;-2.306;2022-07-05T16:42:26;5.53;;;1.00;;
62915;SDS011;49010;51.230;-2.306;2022-07-05T16:46:08;3.03;;;1.20;;
62915;SDS011;49010;51.230;-2.306;2022-07-05T16:49:51;3.50;;;1.60;;
62915;SDS011;49010;51.230;-2.306;2022-07-05T16:53:33;3.05;;;1.40;;
62915;SDS011;49010;51.230;-2.306;2022-07-05T16:57:16;5.47;;;1.55;;
62915;SDS011;49010;51.230;-2.306;2022-07-05T17:00:58;3.08;;;1.30;;
62915;SDS011;49010;51.230;-2.306;2022-07-05T17:04:40;2.42;;;1.20;;
62915;SDS011;49010;51.230;-2.306;2022-07-05T17:08:23;3.20;;;1.40;;
62915;SDS011;49010;51.230;-2.306;2022-07-05T17:12:12;3.20;;;1.80;;
62915;SDS011;49010;51.230;-2.306;2022-07-05T17:15:54;5.03;;;1.60;;
62915;SDS011;49010;51.230;-2.306;2022-07-05T17:19:36;6.45;;;1.85;;
62915;SDS011;49010;51.230;-2.306;2022-07-05T17:23:19;4.00;;;1.70;;
62915;SDS011;49010;51.230;-2.306;2022-07-05T17:27:01;2.63;;;1.35;;
62915;SDS011;49010;51.230;-2.306;2022-07-05T17:30:43;3.97;;;1.20;;
62915;SDS011;49010;51.230;-2.306;2022-07-05T17:34:25;5.13;;;1.55;;
62915;SDS011;49010;51.230;-2.306;2022-07-05T17:38:07;3.08;;;1.20;;
62915;SDS011;49010;51.230;-2.306;2022-07-05T17:41:50;4.38;;;1.60;;
62915;SDS011;49010;51.230;-2.306;2022-07-05T17:45:31;5.45;;;1.48;;
62915;SDS011;49010;51.230;-2.306;2022-07-05T17:49:13;3.70;;;1.30;;
62915;SDS011;49010;51.230;-2.306;2022-07-05T17:52:55;2.60;;;1.23;;
62915;SDS011;49010;51.230;-2.306;2022-07-05T17:56:37;5.05;;;1.25;;
62915;SDS011;49010;51.230;-2.306;2022-07-05T18:00:19;2.60;;;1.02;;
62915;SDS011;49010;51.230;-2.306;2022-07-05T18:04:01;3.55;;;1.10;;
62915;SDS011;49010;51.230;-2.306;2022-07-05T18:07:43;4.90;;;1.15;;
62915;SDS011;49010;51.230;-2.306;2022-07-05T18:11:27;1.48;;;0.82;;
62915;SDS011;49010;51.230;-2.306;2022-07-05T18:15:10;3.70;;;1.25;;
62915;SDS011;49010;51.230;-2.306;2022-07-05T18:18:52;3.03;;;1.38;;
62915;SDS011;49010;51.230;-2.306;2022-07-05T18:22:34;4.28;;;1.13;;
62915;SDS011;49010;51.230;-2.306;2022-07-05T18:26:18;3.20;;;1.13;;
62915;SDS011;49010;51.230;-2.306;2022-07-05T18:30:21;3.05;;;1.25;;
62915;SDS011;49010;51.230;-2.306;2022-07-05T18:34:03;3.45;;;1.10;;
62915;SDS011;49010;51.230;-2.306;2022-07-05T18:37:45;4.05;;;1.35;;
62915;SDS011;49010;51.230;-2.306;2022-07-05T18:41:27;4.78;;;1.08;;
62915;SDS011;49010;51.230;-2.306;2022-07-05T18:45:09;5.18;;;1.30;;
62915;SDS011;49010;51.230;-2.306;2022-07-05T18:48:51;3.47;;;1.00;;
62915;SDS011;49010;51.230;-2.306;2022-07-05T18:52:33;1.85;;;1.08;;
62915;SDS011;49010;51.230;-2.306;2022-07-05T18:56:16;3.13;;;1.10;;
62915;SDS011;49010;51.230;-2.306;2022-07-05T19:00:02;2.92;;;0.95;;
62915;SDS011;49010;51.230;-2.306;2022-07-05T19:03:45;1.98;;;0.60;;
62915;SDS011;49010;51.230;-2.306;2022-07-05T19:07:27;1.40;;;0.57;;
62915;SDS011;49010;51.230;-2.306;2022-07-05T19:11:28;3.78;;;0.80;;
62915;SDS011;49010;51.230;-2.306;2022-07-05T19:15:28;1.90;;;0.60;;
62915;SDS011;49010;51.230;-2.306;2022-07-05T19:19:10;1.92;;;0.52;;
62915;SDS011;49010;51.230;-2.306;2022-07-05T19:22:52;1.85;;;0.55;;
62915;SDS011;49010;51.230;-2.306;2022-07-05T19:26:34;1.25;;;0.40;;
62915;SDS011;49010;51.230;-2.306;2022-07-05T19:30:16;3.45;;;0.60;;
62915;SDS011;49010;51.230;-2.306;2022-07-05T19:33:58;0.88;;;0.57;;
62915;SDS011;49010;51.230;-2.306;2022-07-05T19:37:39;1.08;;;0.32;;
62915;SDS011;49010;51.230;-2.306;2022-07-05T19:41:21;0.63;;;0.50;;
62915;SDS011;49010;51.230;-2.306;2022-07-05T19:45:04;3.40;;;0.65;;
62915;SDS011;49010;51.230;-2.306;2022-07-05T19:48:46;1.35;;;0.50;;
62915;SDS011;49010;51.230;-2.306;2022-07-05T19:52:28;1.23;;;0.40;;
62915;SDS011;49010;51.230;-2.306;2022-07-05T19:56:12;2.58;;;0.70;;
62915;SDS011;49010;51.230;-2.306;2022-07-05T19:59:54;0.77;;;0.40;;
62915;SDS011;49010;51.230;-2.306;2022-07-05T20:03:36;0.40;;;0.40;;
62915;SDS011;49010;51.230;-2.306;2022-07-05T20:07:18;0.65;;;0.55;;
62915;SDS011;49010;51.230;-2.306;2022-07-05T20:11:00;0.40;;;0.30;;
62915;SDS011;49010;51.230;-2.306;2022-07-05T20:14:42;2.17;;;0.40;;
62915;SDS011;49010;51.230;-2.306;2022-07-05T20:18:24;1.20;;;0.40;;
62915;SDS011;49010;51.230;-2.306;2022-07-05T20:22:07;1.13;;;0.55;;
62915;SDS011;49010;51.230;-2.306;2022-07-05T20:25:49;1.30;;;0.47;;
62915;SDS011;49010;51.230;-2.306;2022-07-05T20:29:31;0.52;;;0.50;;
62915;SDS011;49010;51.230;-2.306;2022-07-05T20:33:13;1.77;;;0.95;;
62915;SDS011;49010;51.230;-2.306;2022-07-05T20:36:56;0.95;;;0.47;;
62915;SDS011;49010;51.230;-2.306;2022-07-05T20:40:38;1.90;;;0.75;;
62915;SDS011;49010;51.230;-2.306;2022-07-05T20:44:20;0.80;;;0.60;;
62915;SDS011;49010;51.230;-2.306;2022-07-05T20:48:05;0.80;;;0.55;;
62915;SDS011;49010;51.230;-2.306;2022-07-05T20:51:47;1.67;;;0.40;;
62915;SDS011;49010;51.230;-2.306;2022-07-05T20:55:29;2.20;;;0.60;;
62915;SDS011;49010;51.230;-2.306;2022-07-05T20:59:10;1.08;;;0.47;;
62915;SDS011;49010;51.230;-2.306;2022-07-05T21:02:52;1.50;;;0.60;;
62915;SDS011;49010;51.230;-2.306;2022-07-05T21:06:34;1.15;;;0.60;;
62915;SDS011;49010;51.230;-2.306;2022-07-05T21:10:16;1.50;;;0.65;;
62915;SDS011;49010;51.230;-2.306;2022-07-05T21:13:58;2.55;;;0.80;;
62915;SDS011;49010;51.230;-2.306;2022-07-05T21:17:40;1.35;;;0.68;;
62915;SDS011;49010;51.230;-2.306;2022-07-05T21:21:22;1.15;;;0.63;;
62915;SDS011;49010;51.230;-2.306;2022-07-05T21:25:04;1.20;;;0.68;;
62915;SDS011;49010;51.230;-2.306;2022-07-05T21:28:46;1.77;;;1.00;;
62915;SDS011;49010;51.230;-2.306;2022-07-05T21:32:28;5.07;;;1.15;;
62915;SDS011;49010;51.230;-2.306;2022-07-05T21:36:09;2.33;;;1.02;;
62915;SDS011;49010;51.230;-2.306;2022-07-05T21:39:53;1.60;;;0.80;;
62915;SDS011;49010;51.230;-2.306;2022-07-05T21:43:35;2.25;;;1.08;;
62915;SDS011;49010;51.230;-2.306;2022-07-05T21:47:17;3.20;;;1.27;;
62915;SDS011;49010;51.230;-2.306;2022-07-05T21:50:59;1.42;;;0.77;;
62915;SDS011;49010;51.230;-2.306;2022-07-05T21:54:40;1.85;;;0.88;;
62915;SDS011;49010;51.230;-2.306;2022-07-05T21:58:22;1.90;;;0.90;;
62915;SDS011;49010;51.230;-2.306;2022-07-05T22:02:05;2.03;;;1.23;;
62915;SDS011;49010;51.230;-2.306;2022-07-05T22:06:05;1.98;;;0.80;;
62915;SDS011;49010;51.230;-2.306;2022-07-05T22:09:47;1.52;;;1.10;;
62915;SDS011;49010;51.230;-2.306;2022-07-05T22:13:29;1.92;;;1.02;;
62915;SDS011;49010;51.230;-2.306;2022-07-05T22:17:11;1.33;;;0.90;;
62915;SDS011;49010;51.230;-2.306;2022-07-05T22:20:53;4.78;;;1.38;;
62915;SDS011;49010;51.230;-2.306;2022-07-05T22:24:35;1.83;;;1.25;;
62915;SDS011;49010;51.230;-2.306;2022-07-05T22:28:17;5.15;;;1.42;;
62915;SDS011;49010;51.230;-2.306;2022-07-05T22:31:59;2.72;;;1.15;;